sensor_id;sensor_type;location;lat;lon;timestamp;P1;durP1;ratioP1;P2;durP2;ratioP2
25988;SDS011;13778;48.236;9.894;2023-06-24T00:00:06;6.60;;;5.53;;
25988;SDS011;13778;48.236;9.894;2023-06-24T00:02:58;9.15;;;5.88;;
25988;SDS011;13778;48.236;9.894;2023-06-24T00:05:51;6.20;;;5.25;;
25988;SDS011;13778;48.236;9.894;2023-06-24T00:08:43;6.35;;;4.90;;
25988;SDS011;13778;48.236;9.894;2023-06-24T00:11:34;6.57;;;5.20;;
25988;SDS011;13778;48.236;9.894;2023-06-24T00:14:24;9.07;;;6.07;;
25988;SDS011;13778;48.236;9.894;2023-06-24T00:17:15;7.80;;;5.70;;
25988;SDS011;13778;48.236;9.894;2023-06-24T00:20:06;7.13;;;5.85;;
25988;SDS011;13778;48.236;9.894;2023-06-24T00:22:59;6.13;;;5.53;;
25988;SDS011;13778;48.236;9.894;2023-06-24T00:25:51;7.57;;;5.80;;
25988;SDS011;13778;48.236;9.894;2023-06-24T00:31:31;8.13;;;6.05;;
25988;SDS011;13778;48.236;9.894;2023-06-24T00:34:22;6.40;;;5.38;;
25988;SDS011;13778;48.236;9.894;2023-06-24T00:37:13;6.30;;;5.50;;
25988;SDS011;13778;48.236;9.894;2023-06-24T00:40:04;5.57;;;4.80;;
25988;SDS011;13778;48.236;9.894;2023-06-24T00:42:56;8.65;;;5.50;;
25988;SDS011;13778;48.236;9.894;2023-06-24T00:45:47;9.00;;;6.55;;
25988;SDS011;13778;48.236;9.894;2023-06-24T00:48:38;10.50;;;9.07;;
25988;SDS011;13778;48.236;9.894;2023-06-24T00:51:28;12.00;;;9.02;;
25988;SDS011;13778;48.236;9.894;2023-06-24T00:54:20;10.48;;;8.93;;
25988;SDS011;13778;48.236;9.894;2023-06-24T00:57:10;11.38;;;9.18;;
25988;SDS011;13778;48.236;9.894;2023-06-24T01:00:04;12.25;;;9.10;;
25988;SDS011;13778;48.236;9.894;2023-06-24T01:02:58;16.27;;;9.82;;
25988;SDS011;13778;48.236;9.894;2023-06-24T01:05:49;12.95;;;9.52;;
25988;SDS011;13778;48.236;9.894;2023-06-24T01:08:39;12.20;;;10.75;;
25988;SDS011;13778;48.236;9.894;2023-06-24T01:11:30;12.13;;;10.38;;
25988;SDS011;13778;48.236;9.894;2023-06-24T01:14:20;12.13;;;10.02;;
25988;SDS011;13778;48.236;9.894;2023-06-24T01:17:14;12.43;;;10.13;;
25988;SDS011;13778;48.236;9.894;2023-06-24T01:20:08;14.02;;;10.00;;
25988;SDS011;13778;48.236;9.894;2023-06-24T01:26:14;11.05;;;9.82;;
25988;SDS011;13778;48.236;9.894;2023-06-24T01:29:13;11.07;;;9.82;;
25988;SDS011;13778;48.236;9.894;2023-06-24T01:32:08;11.77;;;9.25;;
25988;SDS011;13778;48.236;9.894;2023-06-24T01:35:02;15.23;;;9.95;;
25988;SDS011;13778;48.236;9.894;2023-06-24T01:37:55;11.75;;;9.45;;
25988;SDS011;13778;48.236;9.894;2023-06-24T01:40:48;10.25;;;9.15;;
25988;SDS011;13778;48.236;9.894;2023-06-24T01:43:40;12.00;;;10.20;;
25988;SDS011;13778;48.236;9.894;2023-06-24T01:46:32;13.48;;;10.05;;
25988;SDS011;13778;48.236;9.894;2023-06-24T01:49:24;13.27;;;9.93;;
25988;SDS011;13778;48.236;9.894;2023-06-24T01:52:17;12.57;;;10.07;;
25988;SDS011;13778;48.236;9.894;2023-06-24T01:55:09;10.00;;;8.88;;
25988;SDS011;13778;48.236;9.894;2023-06-24T01:58:01;10.63;;;9.38;;
25988;SDS011;13778;48.236;9.894;2023-06-24T02:00:52;11.60;;;9.30;;
25988;SDS011;13778;48.236;9.894;2023-06-24T02:03:43;11.70;;;9.60;;
25988;SDS011;13778;48.236;9.894;2023-06-24T02:06:36;11.15;;;9.95;;
25988;SDS011;13778;48.236;9.894;2023-06-24T02:09:28;11.15;;;9.07;;
25988;SDS011;13778;48.236;9.894;2023-06-24T02:12:19;12.23;;;8.85;;
25988;SDS011;13778;48.236;9.894;2023-06-24T02:15:10;16.23;;;9.37;;
25988;SDS011;13778;48.236;9.894;2023-06-24T02:18:01;10.15;;;9.07;;
25988;SDS011;13778;48.236;9.894;2023-06-24T02:20:53;12.05;;;9.60;;
25988;SDS011;13778;48.236;9.894;2023-06-24T02:23:48;11.10;;;9.82;;
25988;SDS011;13778;48.236;9.894;2023-06-24T02:26:38;16.13;;;10.48;;
25988;SDS011;13778;48.236;9.894;2023-06-24T02:29:30;10.70;;;9.60;;
25988;SDS011;13778;48.236;9.894;2023-06-24T02:32:21;12.18;;;10.00;;
25988;SDS011;13778;48.236;9.894;2023-06-24T02:35:11;10.75;;;9.30;;
25988;SDS011;13778;48.236;9.894;2023-06-24T02:38:02;11.35;;;10.15;;
25988;SDS011;13778;48.236;9.894;2023-06-24T02:40:54;13.27;;;11.23;;
25988;SDS011;13778;48.236;9.894;2023-06-24T02:43:45;12.13;;;9.45;;
25988;SDS011;13778;48.236;9.894;2023-06-24T02:46:36;15.05;;;11.23;;
25988;SDS011;13778;48.236;9.894;2023-06-24T02:49:26;14.82;;;11.13;;
25988;SDS011;13778;48.236;9.894;2023-06-24T02:52:17;13.57;;;11.40;;
25988;SDS011;13778;48.236;9.894;2023-06-24T02:55:07;19.25;;;11.85;;
25988;SDS011;13778;48.236;9.894;2023-06-24T02:57:59;12.27;;;10.67;;
25988;SDS011;13778;48.236;9.894;2023-06-24T03:00:50;11.45;;;9.52;;
25988;SDS011;13778;48.236;9.894;2023-06-24T03:03:41;13.88;;;10.57;;
25988;SDS011;13778;48.236;9.894;2023-06-24T03:06:32;15.70;;;10.63;;
25988;SDS011;13778;48.236;9.894;2023-06-24T03:09:26;12.82;;;10.57;;
25988;SDS011;13778;48.236;9.894;2023-06-24T03:12:17;14.27;;;9.38;;
25988;SDS011;13778;48.236;9.894;2023-06-24T03:15:08;11.52;;;9.80;;
25988;SDS011;13778;48.236;9.894;2023-06-24T03:17:59;14.63;;;10.00;;
25988;SDS011;13778;48.236;9.894;2023-06-24T03:20:50;11.68;;;10.45;;
25988;SDS011;13778;48.236;9.894;2023-06-24T03:23:41;13.95;;;10.55;;
25988;SDS011;13778;48.236;9.894;2023-06-24T03:26:32;15.90;;;10.50;;
25988;SDS011;13778;48.236;9.894;2023-06-24T03:29:22;12.80;;;11.03;;
25988;SDS011;13778;48.236;9.894;2023-06-24T03:32:14;15.45;;;10.38;;
25988;SDS011;13778;48.236;9.894;2023-06-24T03:37:56;11.07;;;9.90;;
25988;SDS011;13778;48.236;9.894;2023-06-24T03:40:46;14.43;;;10.90;;
25988;SDS011;13778;48.236;9.894;2023-06-24T03:43:37;11.93;;;9.88;;
25988;SDS011;13778;48.236;9.894;2023-06-24T03:46:27;18.05;;;10.43;;
25988;SDS011;13778;48.236;9.894;2023-06-24T03:49:23;11.77;;;9.48;;
25988;SDS011;13778;48.236;9.894;2023-06-24T03:55:04;10.60;;;9.50;;
25988;SDS011;13778;48.236;9.894;2023-06-24T03:57:54;14.03;;;10.60;;
25988;SDS011;13778;48.236;9.894;2023-06-24T04:00:45;13.77;;;10.50;;
25988;SDS011;13778;48.236;9.894;2023-06-24T04:03:36;15.20;;;9.43;;
25988;SDS011;13778;48.236;9.894;2023-06-24T04:06:28;11.52;;;9.60;;
25988;SDS011;13778;48.236;9.894;2023-06-24T04:09:18;11.75;;;9.93;;
25988;SDS011;13778;48.236;9.894;2023-06-24T04:12:09;10.50;;;9.15;;
25988;SDS011;13778;48.236;9.894;2023-06-24T04:14:59;12.15;;;9.52;;
25988;SDS011;13778;48.236;9.894;2023-06-24T04:17:50;13.13;;;10.00;;
25988;SDS011;13778;48.236;9.894;2023-06-24T04:20:40;14.73;;;11.02;;
25988;SDS011;13778;48.236;9.894;2023-06-24T04:23:32;12.55;;;10.90;;
25988;SDS011;13778;48.236;9.894;2023-06-24T04:26:22;13.48;;;10.98;;
25988;SDS011;13778;48.236;9.894;2023-06-24T04:29:13;14.07;;;10.95;;
25988;SDS011;13778;48.236;9.894;2023-06-24T04:32:04;12.00;;;10.38;;
25988;SDS011;13778;48.236;9.894;2023-06-24T04:34:54;12.07;;;10.07;;
25988;SDS011;13778;48.236;9.894;2023-06-24T04:37:45;16.63;;;10.52;;
25988;SDS011;13778;48.236;9.894;2023-06-24T04:40:36;14.25;;;11.43;;
25988;SDS011;13778;48.236;9.894;2023-06-24T04:46:17;13.50;;;10.23;;
25988;SDS011;13778;48.236;9.894;2023-06-24T04:49:08;13.43;;;10.73;;
25988;SDS011;13778;48.236;9.894;2023-06-24T04:51:59;14.63;;;11.20;;
25988;SDS011;13778;48.236;9.894;2023-06-24T04:54:49;13.33;;;10.60;;
25988;SDS011;13778;48.236;9.894;2023-06-24T04:57:41;13.15;;;10.90;;
25988;SDS011;13778;48.236;9.894;2023-06-24T05:00:32;11.88;;;9.57;;
25988;SDS011;13778;48.236;9.894;2023-06-24T05:03:22;14.20;;;11.32;;
25988;SDS011;13778;48.236;9.894;2023-06-24T05:06:13;13.68;;;9.80;;
25988;SDS011;13778;48.236;9.894;2023-06-24T05:09:04;10.88;;;9.73;;
25988;SDS011;13778;48.236;9.894;2023-06-24T05:11:54;12.32;;;9.35;;
25988;SDS011;13778;48.236;9.894;2023-06-24T05:14:48;12.25;;;9.93;;
25988;SDS011;13778;48.236;9.894;2023-06-24T05:17:39;10.85;;;9.25;;
25988;SDS011;13778;48.236;9.894;2023-06-24T05:20:29;11.60;;;9.05;;
25988;SDS011;13778;48.236;9.894;2023-06-24T05:23:20;10.25;;;9.15;;
25988;SDS011;13778;48.236;9.894;2023-06-24T05:26:10;15.80;;;10.20;;
25988;SDS011;13778;48.236;9.894;2023-06-24T05:29:01;13.25;;;10.23;;
25988;SDS011;13778;48.236;9.894;2023-06-24T05:31:53;11.83;;;9.43;;
25988;SDS011;13778;48.236;9.894;2023-06-24T05:37:34;11.25;;;9.82;;
25988;SDS011;13778;48.236;9.894;2023-06-24T05:40:24;11.73;;;9.32;;
25988;SDS011;13778;48.236;9.894;2023-06-24T05:43:15;12.77;;;9.15;;
25988;SDS011;13778;48.236;9.894;2023-06-24T05:46:05;9.90;;;8.68;;
25988;SDS011;13778;48.236;9.894;2023-06-24T05:48:57;10.30;;;9.00;;
25988;SDS011;13778;48.236;9.894;2023-06-24T05:54:38;9.88;;;8.82;;
25988;SDS011;13778;48.236;9.894;2023-06-24T05:57:28;11.68;;;9.07;;
25988;SDS011;13778;48.236;9.894;2023-06-24T06:00:19;9.90;;;8.90;;
25988;SDS011;13778;48.236;9.894;2023-06-24T06:03:09;9.82;;;8.82;;
25988;SDS011;13778;48.236;9.894;2023-06-24T06:06:01;10.23;;;8.30;;
25988;SDS011;13778;48.236;9.894;2023-06-24T06:08:51;13.38;;;8.57;;
25988;SDS011;13778;48.236;9.894;2023-06-24T06:11:42;9.93;;;8.80;;
25988;SDS011;13778;48.236;9.894;2023-06-24T06:14:32;9.52;;;8.52;;
25988;SDS011;13778;48.236;9.894;2023-06-24T06:17:23;10.57;;;9.18;;
25988;SDS011;13778;48.236;9.894;2023-06-24T06:20:13;9.38;;;8.27;;
25988;SDS011;13778;48.236;9.894;2023-06-24T06:23:05;11.15;;;9.23;;
25988;SDS011;13778;48.236;9.894;2023-06-24T06:25:56;10.65;;;8.63;;
25988;SDS011;13778;48.236;9.894;2023-06-24T06:28:46;9.77;;;8.75;;
25988;SDS011;13778;48.236;9.894;2023-06-24T06:31:37;9.95;;;8.55;;
25988;SDS011;13778;48.236;9.894;2023-06-24T06:34:28;9.80;;;8.83;;
25988;SDS011;13778;48.236;9.894;2023-06-24T06:37:18;11.18;;;9.45;;
25988;SDS011;13778;48.236;9.894;2023-06-24T06:40:11;10.52;;;8.57;;
25988;SDS011;13778;48.236;9.894;2023-06-24T06:43:01;9.73;;;8.73;;
25988;SDS011;13778;48.236;9.894;2023-06-24T06:45:52;18.88;;;8.70;;
25988;SDS011;13778;48.236;9.894;2023-06-24T06:48:42;11.98;;;8.57;;
25988;SDS011;13778;48.236;9.894;2023-06-24T06:51:33;10.25;;;8.07;;
25988;SDS011;13778;48.236;9.894;2023-06-24T06:54:24;10.15;;;9.07;;
25988;SDS011;13778;48.236;9.894;2023-06-24T06:57:16;10.15;;;7.60;;
25988;SDS011;13778;48.236;9.894;2023-06-24T07:00:07;10.68;;;7.20;;
25988;SDS011;13778;48.236;9.894;2023-06-24T07:02:57;15.02;;;7.50;;
25988;SDS011;13778;48.236;9.894;2023-06-24T07:05:48;11.48;;;6.70;;
25988;SDS011;13778;48.236;9.894;2023-06-24T07:08:38;9.38;;;7.30;;
25988;SDS011;13778;48.236;9.894;2023-06-24T07:11:29;14.52;;;7.90;;
25988;SDS011;13778;48.236;9.894;2023-06-24T07:14:21;8.40;;;6.75;;
25988;SDS011;13778;48.236;9.894;2023-06-24T07:17:11;9.02;;;6.25;;
25988;SDS011;13778;48.236;9.894;2023-06-24T07:20:02;8.47;;;6.83;;
25988;SDS011;13778;48.236;9.894;2023-06-24T07:22:53;7.47;;;6.68;;
25988;SDS011;13778;48.236;9.894;2023-06-24T07:25:43;10.02;;;6.97;;
25988;SDS011;13778;48.236;9.894;2023-06-24T07:28:34;7.82;;;6.15;;
25988;SDS011;13778;48.236;9.894;2023-06-24T07:31:26;8.93;;;7.30;;
25988;SDS011;13778;48.236;9.894;2023-06-24T07:37:06;8.32;;;5.53;;
25988;SDS011;13778;48.236;9.894;2023-06-24T07:39:57;6.50;;;5.15;;
25988;SDS011;13778;48.236;9.894;2023-06-24T07:42:47;5.75;;;5.20;;
25988;SDS011;13778;48.236;9.894;2023-06-24T07:45:38;5.30;;;4.80;;
25988;SDS011;13778;48.236;9.894;2023-06-24T07:48:30;6.30;;;5.65;;
25988;SDS011;13778;48.236;9.894;2023-06-24T07:51:20;6.85;;;5.65;;
25988;SDS011;13778;48.236;9.894;2023-06-24T07:54:11;8.63;;;5.93;;
25988;SDS011;13778;48.236;9.894;2023-06-24T07:57:01;6.15;;;5.55;;
25988;SDS011;13778;48.236;9.894;2023-06-24T07:59:52;8.73;;;5.57;;
25988;SDS011;13778;48.236;9.894;2023-06-24T08:02:44;7.72;;;6.78;;
25988;SDS011;13778;48.236;9.894;2023-06-24T08:05:36;7.18;;;5.25;;
25988;SDS011;13778;48.236;9.894;2023-06-24T08:08:28;6.78;;;5.53;;
25988;SDS011;13778;48.236;9.894;2023-06-24T08:11:18;8.45;;;5.70;;
25988;SDS011;13778;48.236;9.894;2023-06-24T08:14:10;13.57;;;6.30;;
25988;SDS011;13778;48.236;9.894;2023-06-24T08:17:01;8.07;;;6.22;;
25988;SDS011;13778;48.236;9.894;2023-06-24T08:19:51;6.35;;;5.20;;
25988;SDS011;13778;48.236;9.894;2023-06-24T08:22:43;7.85;;;7.05;;
25988;SDS011;13778;48.236;9.894;2023-06-24T08:25:34;6.18;;;5.57;;
25988;SDS011;13778;48.236;9.894;2023-06-24T08:28:24;9.23;;;5.85;;
25988;SDS011;13778;48.236;9.894;2023-06-24T08:31:14;6.53;;;5.82;;
25988;SDS011;13778;48.236;9.894;2023-06-24T08:34:05;6.82;;;6.18;;
25988;SDS011;13778;48.236;9.894;2023-06-24T08:36:55;7.97;;;6.20;;
25988;SDS011;13778;48.236;9.894;2023-06-24T08:39:47;6.07;;;5.35;;
25988;SDS011;13778;48.236;9.894;2023-06-24T08:42:38;7.65;;;5.43;;
25988;SDS011;13778;48.236;9.894;2023-06-24T08:45:28;7.65;;;6.38;;
25988;SDS011;13778;48.236;9.894;2023-06-24T08:48:19;7.20;;;6.20;;
25988;SDS011;13778;48.236;9.894;2023-06-24T08:51:10;8.73;;;6.32;;
25988;SDS011;13778;48.236;9.894;2023-06-24T08:56:53;6.45;;;5.50;;
25988;SDS011;13778;48.236;9.894;2023-06-24T08:59:44;6.93;;;6.05;;
25988;SDS011;13778;48.236;9.894;2023-06-24T09:02:34;7.20;;;6.40;;
25988;SDS011;13778;48.236;9.894;2023-06-24T09:05:27;5.80;;;5.18;;
25988;SDS011;13778;48.236;9.894;2023-06-24T09:08:17;6.47;;;5.80;;
25988;SDS011;13778;48.236;9.894;2023-06-24T09:11:09;5.63;;;5.13;;
25988;SDS011;13778;48.236;9.894;2023-06-24T09:14:01;6.13;;;5.53;;
25988;SDS011;13778;48.236;9.894;2023-06-24T09:16:52;6.25;;;5.65;;
25988;SDS011;13778;48.236;9.894;2023-06-24T09:19:43;5.95;;;5.40;;
25988;SDS011;13778;48.236;9.894;2023-06-24T09:22:33;6.07;;;5.47;;
25988;SDS011;13778;48.236;9.894;2023-06-24T09:25:24;5.97;;;5.35;;
25988;SDS011;13778;48.236;9.894;2023-06-24T09:28:14;5.72;;;5.20;;
25988;SDS011;13778;48.236;9.894;2023-06-24T09:31:07;5.90;;;5.40;;
25988;SDS011;13778;48.236;9.894;2023-06-24T09:33:57;7.95;;;5.55;;
25988;SDS011;13778;48.236;9.894;2023-06-24T09:39:39;7.10;;;5.30;;
25988;SDS011;13778;48.236;9.894;2023-06-24T09:42:31;5.80;;;5.22;;
25988;SDS011;13778;48.236;9.894;2023-06-24T09:45:22;6.10;;;5.55;;
25988;SDS011;13778;48.236;9.894;2023-06-24T09:51:04;6.53;;;5.93;;
25988;SDS011;13778;48.236;9.894;2023-06-24T09:53:55;6.07;;;5.50;;
25988;SDS011;13778;48.236;9.894;2023-06-24T09:59:37;11.27;;;6.63;;
25988;SDS011;13778;48.236;9.894;2023-06-24T10:02:27;6.03;;;5.22;;
25988;SDS011;13778;48.236;9.894;2023-06-24T10:05:18;7.30;;;4.78;;
25988;SDS011;13778;48.236;9.894;2023-06-24T10:08:10;7.97;;;4.93;;
25988;SDS011;13778;48.236;9.894;2023-06-24T10:11:01;5.78;;;5.07;;
25988;SDS011;13778;48.236;9.894;2023-06-24T10:13:51;6.40;;;5.20;;
25988;SDS011;13778;48.236;9.894;2023-06-24T10:16:42;6.32;;;4.35;;
25988;SDS011;13778;48.236;9.894;2023-06-24T10:19:37;7.85;;;5.18;;
25988;SDS011;13778;48.236;9.894;2023-06-24T10:22:29;6.50;;;5.38;;
25988;SDS011;13778;48.236;9.894;2023-06-24T10:25:22;6.45;;;4.78;;
25988;SDS011;13778;48.236;9.894;2023-06-24T10:28:12;5.60;;;5.10;;
25988;SDS011;13778;48.236;9.894;2023-06-24T10:31:03;6.35;;;4.57;;
25988;SDS011;13778;48.236;9.894;2023-06-24T10:33:53;4.82;;;4.25;;
25988;SDS011;13778;48.236;9.894;2023-06-24T10:36:44;5.47;;;4.45;;
25988;SDS011;13778;48.236;9.894;2023-06-24T10:39:50;5.47;;;5.00;;
25988;SDS011;13778;48.236;9.894;2023-06-24T10:42:42;5.18;;;4.68;;
25988;SDS011;13778;48.236;9.894;2023-06-24T10:45:32;5.03;;;4.45;;
25988;SDS011;13778;48.236;9.894;2023-06-24T10:48:25;5.05;;;4.55;;
25988;SDS011;13778;48.236;9.894;2023-06-24T10:51:15;5.32;;;4.63;;
25988;SDS011;13778;48.236;9.894;2023-06-24T10:54:06;4.73;;;4.30;;
25988;SDS011;13778;48.236;9.894;2023-06-24T10:56:57;5.13;;;4.53;;
25988;SDS011;13778;48.236;9.894;2023-06-24T10:59:48;4.57;;;4.18;;
25988;SDS011;13778;48.236;9.894;2023-06-24T11:02:39;5.13;;;4.63;;
25988;SDS011;13778;48.236;9.894;2023-06-24T11:05:30;6.60;;;5.18;;
25988;SDS011;13778;48.236;9.894;2023-06-24T11:08:21;5.20;;;4.40;;
25988;SDS011;13778;48.236;9.894;2023-06-24T11:11:19;5.35;;;4.85;;
25988;SDS011;13778;48.236;9.894;2023-06-24T11:14:11;4.80;;;4.32;;
25988;SDS011;13778;48.236;9.894;2023-06-24T11:17:04;4.80;;;4.40;;
25988;SDS011;13778;48.236;9.894;2023-06-24T11:19:55;5.47;;;4.40;;
25988;SDS011;13778;48.236;9.894;2023-06-24T11:22:46;8.95;;;5.13;;
25988;SDS011;13778;48.236;9.894;2023-06-24T11:25:40;3.85;;;3.53;;
25988;SDS011;13778;48.236;9.894;2023-06-24T11:28:31;4.68;;;4.25;;
25988;SDS011;13778;48.236;9.894;2023-06-24T11:31:24;4.22;;;3.83;;
25988;SDS011;13778;48.236;9.894;2023-06-24T11:34:16;4.70;;;4.18;;
25988;SDS011;13778;48.236;9.894;2023-06-24T11:37:11;4.60;;;4.20;;
25988;SDS011;13778;48.236;9.894;2023-06-24T11:40:02;5.60;;;4.93;;
25988;SDS011;13778;48.236;9.894;2023-06-24T11:42:54;4.82;;;4.43;;
25988;SDS011;13778;48.236;9.894;2023-06-24T11:45:47;5.25;;;4.28;;
25988;SDS011;13778;48.236;9.894;2023-06-24T11:48:39;6.00;;;3.75;;
25988;SDS011;13778;48.236;9.894;2023-06-24T11:54:21;4.93;;;4.43;;
25988;SDS011;13778;48.236;9.894;2023-06-24T11:57:13;5.85;;;4.75;;
25988;SDS011;13778;48.236;9.894;2023-06-24T12:00:04;4.97;;;4.50;;
25988;SDS011;13778;48.236;9.894;2023-06-24T12:03:02;4.43;;;4.03;;
25988;SDS011;13778;48.236;9.894;2023-06-24T12:05:52;4.75;;;4.32;;
25988;SDS011;13778;48.236;9.894;2023-06-24T12:08:43;4.47;;;4.05;;
25988;SDS011;13778;48.236;9.894;2023-06-24T12:11:35;5.78;;;4.63;;
25988;SDS011;13778;48.236;9.894;2023-06-24T12:14:25;5.03;;;4.47;;
25988;SDS011;13778;48.236;9.894;2023-06-24T12:17:16;5.53;;;4.72;;
25988;SDS011;13778;48.236;9.894;2023-06-24T12:20:07;5.22;;;4.70;;
25988;SDS011;13778;48.236;9.894;2023-06-24T12:22:57;5.10;;;4.60;;
25988;SDS011;13778;48.236;9.894;2023-06-24T12:25:48;4.43;;;3.97;;
25988;SDS011;13778;48.236;9.894;2023-06-24T12:28:40;5.20;;;4.70;;
25988;SDS011;13778;48.236;9.894;2023-06-24T12:31:30;4.25;;;3.85;;
25988;SDS011;13778;48.236;9.894;2023-06-24T12:34:21;4.63;;;4.22;;
25988;SDS011;13778;48.236;9.894;2023-06-24T12:37:11;4.93;;;4.53;;
25988;SDS011;13778;48.236;9.894;2023-06-24T12:40:02;4.97;;;4.13;;
25988;SDS011;13778;48.236;9.894;2023-06-24T12:42:53;6.68;;;4.88;;
25988;SDS011;13778;48.236;9.894;2023-06-24T12:45:45;5.32;;;4.82;;
25988;SDS011;13778;48.236;9.894;2023-06-24T12:48:36;4.53;;;4.13;;
25988;SDS011;13778;48.236;9.894;2023-06-24T12:51:26;5.10;;;4.63;;
25988;SDS011;13778;48.236;9.894;2023-06-24T12:54:17;5.53;;;5.03;;
25988;SDS011;13778;48.236;9.894;2023-06-24T12:57:07;4.85;;;4.35;;
25988;SDS011;13778;48.236;9.894;2023-06-24T12:59:58;4.60;;;4.20;;
25988;SDS011;13778;48.236;9.894;2023-06-24T13:02:49;4.60;;;4.18;;
25988;SDS011;13778;48.236;9.894;2023-06-24T13:08:30;5.72;;;4.32;;
25988;SDS011;13778;48.236;9.894;2023-06-24T13:11:20;5.03;;;4.50;;
25988;SDS011;13778;48.236;9.894;2023-06-24T13:14:11;5.63;;;4.70;;
25988;SDS011;13778;48.236;9.894;2023-06-24T13:17:02;5.93;;;4.25;;
25988;SDS011;13778;48.236;9.894;2023-06-24T13:19:54;6.00;;;4.55;;
25988;SDS011;13778;48.236;9.894;2023-06-24T13:22:44;4.47;;;4.03;;
25988;SDS011;13778;48.236;9.894;2023-06-24T13:25:35;4.47;;;4.00;;
25988;SDS011;13778;48.236;9.894;2023-06-24T13:28:25;4.25;;;3.85;;
25988;SDS011;13778;48.236;9.894;2023-06-24T13:31:15;4.63;;;4.22;;
25988;SDS011;13778;48.236;9.894;2023-06-24T13:34:06;4.60;;;3.60;;
25988;SDS011;13778;48.236;9.894;2023-06-24T13:36:58;6.60;;;4.40;;
25988;SDS011;13778;48.236;9.894;2023-06-24T13:39:48;4.30;;;3.60;;
25988;SDS011;13778;48.236;9.894;2023-06-24T13:42:39;5.70;;;3.50;;
25988;SDS011;13778;48.236;9.894;2023-06-24T13:45:29;3.92;;;3.63;;
25988;SDS011;13778;48.236;9.894;2023-06-24T13:48:20;4.75;;;4.13;;
25988;SDS011;13778;48.236;9.894;2023-06-24T13:51:11;3.95;;;3.55;;
25988;SDS011;13778;48.236;9.894;2023-06-24T13:54:02;3.78;;;3.38;;
25988;SDS011;13778;48.236;9.894;2023-06-24T13:56:53;4.35;;;3.42;;
25988;SDS011;13778;48.236;9.894;2023-06-24T13:59:44;4.30;;;3.80;;
25988;SDS011;13778;48.236;9.894;2023-06-24T14:02:36;3.58;;;3.25;;
25988;SDS011;13778;48.236;9.894;2023-06-24T14:05:26;7.43;;;3.75;;
25988;SDS011;13778;48.236;9.894;2023-06-24T14:08:17;3.75;;;3.20;;
25988;SDS011;13778;48.236;9.894;2023-06-24T14:11:07;4.82;;;4.32;;
25988;SDS011;13778;48.236;9.894;2023-06-24T14:13:58;4.93;;;3.90;;
25988;SDS011;13778;48.236;9.894;2023-06-24T14:16:48;4.70;;;4.30;;
25988;SDS011;13778;48.236;9.894;2023-06-24T14:19:40;4.20;;;3.80;;
25988;SDS011;13778;48.236;9.894;2023-06-24T14:22:31;4.97;;;3.33;;
25988;SDS011;13778;48.236;9.894;2023-06-24T14:25:21;3.80;;;3.47;;
25988;SDS011;13778;48.236;9.894;2023-06-24T14:28:13;4.95;;;4.07;;
25988;SDS011;13778;48.236;9.894;2023-06-24T14:31:03;8.05;;;4.85;;
25988;SDS011;13778;48.236;9.894;2023-06-24T14:33:53;4.53;;;3.90;;
25988;SDS011;13778;48.236;9.894;2023-06-24T14:36:45;4.90;;;3.83;;
25988;SDS011;13778;48.236;9.894;2023-06-24T14:39:36;4.15;;;3.63;;
25988;SDS011;13778;48.236;9.894;2023-06-24T14:42:26;4.40;;;3.78;;
25988;SDS011;13778;48.236;9.894;2023-06-24T14:45:17;3.85;;;3.50;;
25988;SDS011;13778;48.236;9.894;2023-06-24T14:48:07;3.85;;;3.55;;
25988;SDS011;13778;48.236;9.894;2023-06-24T14:50:58;4.13;;;3.63;;
25988;SDS011;13778;48.236;9.894;2023-06-24T14:53:50;4.22;;;3.80;;
25988;SDS011;13778;48.236;9.894;2023-06-24T14:59:30;5.07;;;4.25;;
25988;SDS011;13778;48.236;9.894;2023-06-24T15:02:21;3.97;;;3.55;;
25988;SDS011;13778;48.236;9.894;2023-06-24T15:05:11;6.30;;;3.33;;
25988;SDS011;13778;48.236;9.894;2023-06-24T15:08:02;6.07;;;4.00;;
25988;SDS011;13778;48.236;9.894;2023-06-24T15:10:53;4.22;;;3.60;;
25988;SDS011;13778;48.236;9.894;2023-06-24T15:16:34;5.93;;;3.40;;
25988;SDS011;13778;48.236;9.894;2023-06-24T15:19:24;3.70;;;3.40;;
25988;SDS011;13778;48.236;9.894;2023-06-24T15:22:15;4.57;;;3.72;;
25988;SDS011;13778;48.236;9.894;2023-06-24T15:25:06;3.63;;;3.08;;
25988;SDS011;13778;48.236;9.894;2023-06-24T15:27:58;3.65;;;3.35;;
25988;SDS011;13778;48.236;9.894;2023-06-24T15:30:49;3.75;;;3.30;;
25988;SDS011;13778;48.236;9.894;2023-06-24T15:33:39;3.72;;;3.15;;
25988;SDS011;13778;48.236;9.894;2023-06-24T15:36:30;5.90;;;3.92;;
25988;SDS011;13778;48.236;9.894;2023-06-24T15:39:20;4.63;;;3.55;;
25988;SDS011;13778;48.236;9.894;2023-06-24T15:42:11;4.20;;;3.80;;
25988;SDS011;13778;48.236;9.894;2023-06-24T15:45:03;4.82;;;4.15;;
25988;SDS011;13778;48.236;9.894;2023-06-24T15:47:53;3.85;;;3.50;;
25988;SDS011;13778;48.236;9.894;2023-06-24T15:50:44;3.65;;;3.35;;
25988;SDS011;13778;48.236;9.894;2023-06-24T15:53:34;4.32;;;3.72;;
25988;SDS011;13778;48.236;9.894;2023-06-24T15:56:25;5.65;;;3.83;;
25988;SDS011;13778;48.236;9.894;2023-06-24T15:59:15;4.03;;;3.65;;
25988;SDS011;13778;48.236;9.894;2023-06-24T16:02:07;4.18;;;3.78;;
25988;SDS011;13778;48.236;9.894;2023-06-24T16:04:58;4.05;;;3.50;;
25988;SDS011;13778;48.236;9.894;2023-06-24T16:07:48;3.53;;;3.22;;
25988;SDS011;13778;48.236;9.894;2023-06-24T16:10:39;5.95;;;4.05;;
25988;SDS011;13778;48.236;9.894;2023-06-24T16:13:29;4.72;;;3.80;;
25988;SDS011;13778;48.236;9.894;2023-06-24T16:16:20;3.67;;;3.17;;
25988;SDS011;13778;48.236;9.894;2023-06-24T16:19:12;4.78;;;3.65;;
25988;SDS011;13778;48.236;9.894;2023-06-24T16:24:52;4.13;;;3.72;;
25988;SDS011;13778;48.236;9.894;2023-06-24T16:27:43;3.92;;;3.53;;
25988;SDS011;13778;48.236;9.894;2023-06-24T16:30:33;3.97;;;3.33;;
25988;SDS011;13778;48.236;9.894;2023-06-24T16:33:24;3.80;;;3.47;;
25988;SDS011;13778;48.236;9.894;2023-06-24T16:36:16;4.43;;;3.92;;
25988;SDS011;13778;48.236;9.894;2023-06-24T16:39:06;5.45;;;3.90;;
25988;SDS011;13778;48.236;9.894;2023-06-24T16:41:57;4.93;;;4.03;;
25988;SDS011;13778;48.236;9.894;2023-06-24T16:44:47;3.90;;;3.50;;
25988;SDS011;13778;48.236;9.894;2023-06-24T16:47:40;4.45;;;3.65;;
25988;SDS011;13778;48.236;9.894;2023-06-24T16:50:31;3.95;;;3.30;;
25988;SDS011;13778;48.236;9.894;2023-06-24T16:53:24;4.93;;;4.00;;
25988;SDS011;13778;48.236;9.894;2023-06-24T16:56:15;5.60;;;4.00;;
25988;SDS011;13778;48.236;9.894;2023-06-24T16:59:05;5.47;;;4.22;;
25988;SDS011;13778;48.236;9.894;2023-06-24T17:01:56;5.97;;;4.95;;
25988;SDS011;13778;48.236;9.894;2023-06-24T17:04:46;4.82;;;4.30;;
25988;SDS011;13778;48.236;9.894;2023-06-24T17:07:37;6.18;;;4.35;;
25988;SDS011;13778;48.236;9.894;2023-06-24T17:10:28;6.20;;;3.95;;
25988;SDS011;13778;48.236;9.894;2023-06-24T17:16:09;5.07;;;4.53;;
25988;SDS011;13778;48.236;9.894;2023-06-24T17:18:59;5.43;;;4.47;;
25988;SDS011;13778;48.236;9.894;2023-06-24T17:21:50;14.98;;;6.15;;
25988;SDS011;13778;48.236;9.894;2023-06-24T17:24:41;4.35;;;3.78;;
25988;SDS011;13778;48.236;9.894;2023-06-24T17:27:33;4.35;;;3.95;;
25988;SDS011;13778;48.236;9.894;2023-06-24T17:30:23;4.32;;;3.83;;
25988;SDS011;13778;48.236;9.894;2023-06-24T17:33:14;4.25;;;3.85;;
25988;SDS011;13778;48.236;9.894;2023-06-24T17:36:04;4.10;;;3.70;;
25988;SDS011;13778;48.236;9.894;2023-06-24T17:38:55;4.32;;;3.85;;
25988;SDS011;13778;48.236;9.894;2023-06-24T17:41:45;5.57;;;4.00;;
25988;SDS011;13778;48.236;9.894;2023-06-24T17:44:37;5.68;;;4.03;;
25988;SDS011;13778;48.236;9.894;2023-06-24T17:47:28;4.40;;;3.80;;
25988;SDS011;13778;48.236;9.894;2023-06-24T17:50:20;4.50;;;3.50;;
25988;SDS011;13778;48.236;9.894;2023-06-24T17:53:11;4.65;;;3.90;;